Time;durP1;ratioP1;P1;durP2;ratioP2;P2;SDS_P1;SDS_P2;PMS_P1;PMS_P2;Temp;Humidity;BMP_temperature;BMP_pressure;BME280_temperature;BME280_humidity;BME280_pressure;Samples;Min_cycle;Max_cycle;Signal;HPM_P1;HPM_P2
2022/02/22 00:00:33;;;;;;;3.80;1.33;;;5.10;70.40;;;;;;5029416;28;20569;-68
2022/02/22 00:03:01;;;;;;;2.88;0.93;;;5.10;70.60;;;;;;5025525;28;20187;-68
2022/02/22 00:05:28;;;;;;;4.18;1.80;;;5.10;70.90;;;;;;5030504;28;20190;-67
2022/02/22 00:07:55;;;;;;;6.38;1.67;;;5.10;70.80;;;;;;5029523;28;20716;-67
2022/02/22 00:10:23;;;;;;;6.65;1.48;;;5.20;71.10;;;;;;5030268;28;20198;-68
2022/02/22 00:12:50;;;;;;;2.75;1.33;;;5.20;71.10;;;;;;5025091;28;20221;-68
2022/02/22 00:15:17;;;;;;;2.70;1.25;;;5.20;71.20;;;;;;5030519;28;20187;-68
2022/02/22 00:17:44;;;;;;;1.95;1.10;;;5.20;71.20;;;;;;5029293;28;20333;-67
2022/02/22 00:20:14;;;;;;;3.30;1.00;;;5.30;71.20;;;;;;5030319;28;20268;-67
2022/02/22 00:22:41;;;;;;;4.53;1.20;;;5.30;70.90;;;;;;5023226;28;20187;-67
2022/02/22 00:25:11;;;;;;;2.92;1.20;;;5.40;71.30;;;;;;5022632;28;20552;-68
2022/02/22 00:27:39;;;;;;;3.33;1.38;;;5.30;71.10;;;;;;5021813;28;20223;-68
2022/02/22 00:30:07;;;;;;;3.08;1.40;;;5.30;71.00;;;;;;5013575;28;20279;-67
2022/02/22 00:32:34;;;;;;;4.47;1.15;;;5.40;70.80;;;;;;5031450;28;20238;-67
2022/02/22 00:35:01;;;;;;;3.70;1.30;;;5.40;70.60;;;;;;5030560;28;20630;-67
2022/02/22 00:37:29;;;;;;;3.75;1.30;;;5.50;71.20;;;;;;5012189;28;20501;-67
2022/02/22 00:39:56;;;;;;;3.80;1.10;;;5.50;69.80;;;;;;5016325;28;20296;-67
2022/02/22 00:42:25;;;;;;;3.38;1.17;;;5.60;69.80;;;;;;5031407;28;20674;-68
2022/02/22 00:44:52;;;;;;;3.30;1.02;;;5.60;69.80;;;;;;5026992;28;20175;-68
2022/02/22 00:47:19;;;;;;;2.25;1.25;;;5.60;69.40;;;;;;5018732;28;20179;-68
2022/02/22 00:49:46;;;;;;;3.63;1.30;;;5.60;69.10;;;;;;5027731;28;20188;-67
2022/02/22 00:52:13;;;;;;;2.10;1.00;;;5.60;68.80;;;;;;5017147;28;20219;-67
2022/02/22 00:54:41;;;;;;;3.00;1.30;;;5.70;68.40;;;;;;5011428;28;20190;-67
2022/02/22 00:57:08;;;;;;;1.60;0.80;;;5.70;67.80;;;;;;5011534;28;20245;-71
2022/02/22 00:59:35;;;;;;;2.28;1.20;;;5.70;67.30;;;;;;5031274;28;20257;-67
2022/02/22 01:02:02;;;;;;;2.60;1.40;;;5.70;67.10;;;;;;5031561;28;20199;-67
2022/02/22 01:04:29;;;;;;;2.60;1.10;;;5.80;66.50;;;;;;5012014;28;20234;-68
2022/02/22 01:06:56;;;;;;;3.65;1.17;;;5.80;66.10;;;;;;5011314;28;20713;-75
2022/02/22 01:09:24;;;;;;;2.15;0.80;;;5.70;66.10;;;;;;5011482;28;20188;-67
2022/02/22 01:11:52;;;;;;;2.15;1.10;;;5.70;66.50;;;;;;5011717;28;20249;-67
2022/02/22 01:14:19;;;;;;;5.40;1.92;;;5.60;66.50;;;;;;5029773;28;20320;-67
2022/02/22 01:16:46;;;;;;;6.95;1.58;;;5.60;67.00;;;;;;5031709;28;20584;-67
2022/02/22 01:19:13;;;;;;;2.60;1.10;;;5.60;67.30;;;;;;5013119;28;20350;-67
2022/02/22 01:21:40;;;;;;;2.13;0.90;;;5.50;67.80;;;;;;5011617;28;20528;-67
2022/02/22 01:24:08;;;;;;;3.05;1.30;;;5.40;68.30;;;;;;5026815;28;20215;-68
2022/02/22 01:26:35;;;;;;;3.85;1.27;;;5.40;68.80;;;;;;5030580;28;20313;-67
2022/02/22 01:29:04;;;;;;;5.88;1.60;;;5.40;69.20;;;;;;5015326;28;20196;-67
2022/02/22 01:31:31;;;;;;;3.30;1.30;;;5.40;69.80;;;;;;5011300;28;20273;-67
2022/02/22 01:33:58;;;;;;;4.90;1.20;;;5.40;69.70;;;;;;5024280;28;20183;-68
2022/02/22 01:36:26;;;;;;;7.57;1.60;;;5.40;69.60;;;;;;5024845;28;20211;-68
2022/02/22 01:38:53;;;;;;;3.67;1.65;;;5.40;69.70;;;;;;5010976;28;20698;-68
2022/02/22 01:41:20;;;;;;;5.60;1.52;;;5.40;70.30;;;;;;5023930;28;20328;-68
2022/02/22 01:43:47;;;;;;;5.47;1.25;;;5.40;70.50;;;;;;5030119;28;20191;-68
2022/02/22 01:46:16;;;;;;;10.05;1.63;;;5.40;70.30;;;;;;5017134;28;20214;-67
2022/02/22 01:48:43;;;;;;;4.35;1.48;;;5.40;69.90;;;;;;5011166;28;20526;-67
2022/02/22 01:51:10;;;;;;;2.85;1.17;;;5.40;70.10;;;;;;5020919;28;20237;-67
2022/02/22 01:53:37;;;;;;;2.97;1.00;;;5.50;70.20;;;;;;5023425;28;20188;-67
2022/02/22 01:56:05;;;;;;;2.47;1.20;;;5.50;70.20;;;;;;5011010;28;20203;-67
2022/02/22 01:58:32;;;;;;;6.75;1.42;;;5.50;70.30;;;;;;5017538;28;20301;-67
2022/02/22 02:00:58;;;;;;;3.88;1.25;;;5.50;69.90;;;;;;5034433;28;20542;-67
2022/02/22 02:03:28;;;;;;;4.68;1.15;;;5.60;70.00;;;;;;5029573;28;20212;-69
2022/02/22 02:05:56;;;;;;;3.85;1.35;;;5.60;69.80;;;;;;5014565;28;20658;-68
2022/02/22 02:08:23;;;;;;;5.10;1.15;;;5.70;69.90;;;;;;5016922;28;20179;-68
2022/02/22 02:10:50;;;;;;;3.00;1.05;;;5.70;69.60;;;;;;5034293;28;20241;-68
2022/02/22 02:13:17;;;;;;;2.58;0.98;;;5.70;69.10;;;;;;5031998;28;20258;-67
2022/02/22 02:15:44;;;;;;;4.53;1.60;;;5.70;69.00;;;;;;5014308;28;20195;-67
2022/02/22 02:18:13;;;;;;;3.13;1.55;;;5.70;69.00;;;;;;5014406;28;20258;-71
2022/02/22 02:20:42;;;;;;;3.85;1.30;;;5.70;69.10;;;;;;5034093;28;20575;-67
2022/02/22 02:23:10;;;;;;;5.45;2.05;;;5.70;68.80;;;;;;5034129;28;20195;-72
2022/02/22 02:25:37;;;;;;;5.03;1.50;;;5.80;68.70;;;;;;5013845;28;20226;-67
2022/02/22 02:28:06;;;;;;;3.80;1.20;;;5.80;68.40;;;;;;5014235;28;20569;-67
2022/02/22 02:30:32;;;;;;;4.95;1.30;;;5.80;68.40;;;;;;5032081;28;20191;-68
2022/02/22 02:32:59;;;;;;;4.35;1.20;;;5.70;68.30;;;;;;5032785;28;20210;-68
2022/02/22 02:35:27;;;;;;;4.93;1.13;;;5.70;68.50;;;;;;5033745;28;20187;-68
2022/02/22 02:37:54;;;;;;;9.02;1.20;;;5.70;68.20;;;;;;5027724;28;20180;-67
2022/02/22 02:40:22;;;;;;;4.32;2.03;;;5.70;67.80;;;;;;5013844;28;20231;-68
2022/02/22 02:42:49;;;;;;;4.50;1.33;;;5.70;67.80;;;;;;5017902;28;20211;-67
2022/02/22 02:45:16;;;;;;;5.30;1.17;;;5.70;68.30;;;;;;5033585;28;20242;-68
2022/02/22 02:47:44;;;;;;;13.23;2.20;;;5.70;67.90;;;;;;5030307;28;21990;-67
2022/02/22 02:50:11;;;;;;;5.35;2.08;;;5.80;67.60;;;;;;5014151;28;20260;-67
2022/02/22 02:52:39;;;;;;;4.20;1.48;;;5.80;67.80;;;;;;5014791;28;20593;-68
2022/02/22 02:55:06;;;;;;;4.05;1.40;;;5.80;67.80;;;;;;5033581;28;20240;-67
2022/02/22 02:57:36;;;;;;;4.30;1.20;;;5.80;67.60;;;;;;5030578;28;20191;-67
2022/02/22 03:00:04;;;;;;;4.43;1.60;;;5.80;67.80;;;;;;5033419;28;20329;-67
2022/02/22 03:02:31;;;;;;;3.50;1.25;;;5.80;67.70;;;;;;5025901;28;20184;-68
2022/02/22 03:04:59;;;;;;;5.40;1.85;;;5.90;67.50;;;;;;5013746;28;20269;-68
2022/02/22 03:07:27;;;;;;;3.88;1.20;;;5.90;67.50;;;;;;5018207;28;20512;-68
2022/02/22 03:09:54;;;;;;;2.13;1.10;;;5.90;67.70;;;;;;5032992;28;20561;-68
2022/02/22 03:12:21;;;;;;;3.55;1.50;;;5.90;66.90;;;;;;5027310;28;20184;-67
2022/02/22 03:14:50;;;;;;;3.05;1.08;;;5.80;66.60;;;;;;5012949;28;20192;-67
2022/02/22 03:17:17;;;;;;;6.95;1.70;;;5.80;66.80;;;;;;5015924;28;20183;-68
2022/02/22 03:19:43;;;;;;;5.90;1.60;;;5.80;66.70;;;;;;5032754;28;20300;-68
2022/02/22 03:22:10;;;;;;;3.25;1.15;;;5.80;66.70;;;;;;5030181;28;20253;-71
2022/02/22 03:24:37;;;;;;;3.28;1.20;;;5.80;66.80;;;;;;5020618;28;20253;-67
2022/02/22 03:27:05;;;;;;;3.80;1.30;;;5.80;66.60;;;;;;5032510;28;20206;-67
2022/02/22 03:29:31;;;;;;;4.80;1.13;;;5.80;66.20;;;;;;5032900;28;20646;-68
2022/02/22 03:32:00;;;;;;;3.40;1.38;;;5.90;66.00;;;;;;5012762;28;20188;-67
2022/02/22 03:34:27;;;;;;;3.25;1.05;;;5.90;65.60;;;;;;5013251;28;20188;-67
2022/02/22 03:36:54;;;;;;;7.93;1.27;;;5.90;65.10;;;;;;5030268;28;20188;-68
2022/02/22 03:39:20;;;;;;;5.30;1.50;;;5.80;64.80;;;;;;5016389;28;20702;-68
2022/02/22 03:41:53;;;;;;;5.22;1.10;;;5.80;64.80;;;;;;5012507;28;20246;-67
2022/02/22 03:44:20;;;;;;;5.10;1.10;;;5.80;64.80;;;;;;5027001;28;20191;-68
2022/02/22 03:46:47;;;;;;;3.90;1.10;;;5.90;64.50;;;;;;5032873;28;20195;-67
2022/02/22 03:49:15;;;;;;;5.40;1.65;;;5.90;64.30;;;;;;5018434;28;20195;-67
2022/02/22 03:51:42;;;;;;;5.97;1.60;;;5.80;64.10;;;;;;5012894;28;20192;-67
2022/02/22 03:54:09;;;;;;;5.75;0.80;;;5.90;64.10;;;;;;5024795;28;20183;-67
2022/02/22 03:56:36;;;;;;;3.55;1.40;;;5.80;63.30;;;;;;5032440;28;20265;-68
2022/02/22 03:59:03;;;;;;;2.97;1.17;;;5.80;63.10;;;;;;5020723;28;20243;-68
2022/02/22 04:01:30;;;;;;;4.32;1.33;;;5.80;63.30;;;;;;5012818;28;20196;-67
2022/02/22 04:03:57;;;;;;;5.13;1.65;;;5.70;63.70;;;;;;5021929;28;20213;-69
2022/02/22 04:06:25;;;;;;;2.75;1.27;;;5.70;63.70;;;;;;5032813;28;20602;-68
2022/02/22 04:08:52;;;;;;;2.92;1.10;;;5.80;64.40;;;;;;5023391;28;20196;-67
2022/02/22 04:11:19;;;;;;;3.88;1.27;;;5.80;63.90;;;;;;5012865;28;20192;-67
2022/02/22 04:13:46;;;;;;;4.82;1.45;;;5.70;64.00;;;;;;5018169;28;20277;-68
2022/02/22 04:16:13;;;;;;;5.70;1.23;;;5.70;64.30;;;;;;5024749;28;20195;-68
2022/02/22 04:18:44;;;;;;;5.22;1.20;;;5.80;64.10;;;;;;5015086;28;20245;-68
2022/02/22 04:21:11;;;;;;;7.05;1.30;;;5.80;64.10;;;;;;5031615;28;20187;-67
2022/02/22 04:23:41;;;;;;;3.13;0.98;;;5.80;64.00;;;;;;5028199;28;20229;-68
2022/02/22 04:26:08;;;;;;;3.13;1.25;;;5.80;63.70;;;;;;5012480;28;20674;-67
2022/02/22 04:28:35;;;;;;;1.90;1.00;;;5.80;63.70;;;;;;5014046;28;20379;-67
2022/02/22 04:31:02;;;;;;;4.43;0.90;;;5.80;64.10;;;;;;5032123;28;20656;-67
2022/02/22 04:33:29;;;;;;;3.97;1.10;;;5.80;64.80;;;;;;5017421;28;20238;-67
2022/02/22 04:35:56;;;;;;;5.95;1.38;;;5.80;65.70;;;;;;5032054;28;20226;-68
2022/02/22 04:38:22;;;;;;;2.13;1.00;;;5.80;65.90;;;;;;5017194;28;20196;-68
2022/02/22 04:40:51;;;;;;;8.27;1.15;;;5.80;66.00;;;;;;5012634;28;20593;-67
2022/02/22 04:43:18;;;;;;;4.85;1.23;;;5.80;67.00;;;;;;5018867;28;20602;-67
2022/02/22 04:45:44;;;;;;;2.28;0.88;;;5.80;67.70;;;;;;5012303;28;20231;-67
2022/02/22 04:48:11;;;;;;;3.45;1.70;;;5.80;67.80;;;;;;5012085;28;20643;-67
2022/02/22 04:50:38;;;;;;;8.30;1.55;;;5.90;68.00;;;;;;5012445;28;20254;-68
2022/02/22 04:53:08;;;;;;;2.60;1.80;;;5.90;68.00;;;;;;5024036;28;20229;-67
2022/02/22 04:55:35;;;;;;;4.95;1.50;;;5.90;68.30;;;;;;5031954;28;20626;-67
2022/02/22 04:58:03;;;;;;;7.28;1.50;;;5.90;68.20;;;;;;5019778;28;20598;-69
2022/02/22 05:00:30;;;;;;;3.22;1.08;;;5.80;68.10;;;;;;5012335;28;20223;-70
2022/02/22 05:02:57;;;;;;;5.60;1.42;;;5.80;68.30;;;;;;5012023;28;20183;-68
2022/02/22 05:05:25;;;;;;;4.85;1.80;;;5.80;69.00;;;;;;5028779;28;20245;-67
2022/02/22 05:07:52;;;;;;;5.18;1.17;;;5.70;69.60;;;;;;5032407;28;20218;-67
2022/02/22 05:10:19;;;;;;;3.20;1.27;;;5.70;70.20;;;;;;5015911;28;20230;-67
2022/02/22 05:12:46;;;;;;;3.10;1.40;;;5.70;70.60;;;;;;5019930;28;20238;-68
2022/02/22 05:15:14;;;;;;;2.13;1.10;;;5.70;71.60;;;;;;5031819;28;20260;-67
2022/02/22 05:17:41;;;;;;;2.60;0.93;;;5.70;71.90;;;;;;5024037;28;20184;-67
2022/02/22 05:20:09;;;;;;;6.95;2.30;;;5.60;72.30;;;;;;5012320;28;20223;-67
2022/02/22 05:22:41;;;;;;;5.68;1.13;;;5.70;72.60;;;;;;5017372;28;20650;-67
2022/02/22 05:25:09;;;;;;;3.03;1.52;;;5.70;73.30;;;;;;5031826;28;20195;-67
2022/02/22 05:27:36;;;;;;;3.15;1.65;;;5.60;73.40;;;;;;5026039;28;20195;-67
2022/02/22 05:30:03;;;;;;;3.72;0.90;;;5.60;73.00;;;;;;5012178;28;20231;-68
2022/02/22 05:32:32;;;;;;;3.30;1.42;;;5.50;73.00;;;;;;5017516;28;20520;-68
2022/02/22 05:35:00;;;;;;;2.40;1.65;;;5.40;74.00;;;;;;5035952;28;20684;-67
2022/02/22 05:37:27;;;;;;;2.20;1.30;;;5.40;74.90;;;;;;5032096;28;20274;-67
2022/02/22 05:39:55;;;;;;;4.25;1.40;;;5.30;74.80;;;;;;5016282;28;20696;-67
2022/02/22 05:42:22;;;;;;;4.85;1.50;;;5.30;75.20;;;;;;5032422;28;20187;-67
2022/02/22 05:44:50;;;;;;;3.25;1.33;;;5.30;75.40;;;;;;5035773;28;20276;-67
2022/02/22 05:47:17;;;;;;;3.65;1.17;;;5.30;75.10;;;;;;5026836;28;20245;-67
2022/02/22 05:50:07;;;;;;;4.43;4.00;;;5.20;74.50;;;;;;5031034;28;20534;-68
2022/02/22 05:52:34;;;;;;;5.13;3.05;;;5.20;74.10;;;;;;5035202;28;20195;-67
2022/02/22 05:55:01;;;;;;;3.75;2.15;;;5.20;73.60;;;;;;5032619;28;20591;-67
2022/02/22 05:57:29;;;;;;;3.20;1.33;;;5.20;74.00;;;;;;5031167;28;20188;-67
2022/02/22 05:59:56;;;;;;;2.88;1.20;;;5.10;73.40;;;;;;5027700;28;20218;-68
2022/02/22 06:02:23;;;;;;;4.05;1.70;;;5.10;73.30;;;;;;5028306;28;20222;-67
2022/02/22 06:04:52;;;;;;;4.35;1.00;;;5.10;74.10;;;;;;5021358;28;20219;-66
2022/02/22 06:07:20;;;;;;;7.93;1.65;;;5.00;72.90;;;;;;5015686;28;20298;-66
2022/02/22 06:09:47;;;;;;;4.68;1.35;;;5.00;72.20;;;;;;5019747;28;20583;-66
2022/02/22 06:12:14;;;;;;;4.80;1.95;;;5.00;72.20;;;;;;5035137;28;20627;-67
2022/02/22 06:14:41;;;;;;;2.38;1.30;;;5.10;71.90;;;;;;5029798;28;20266;-69
2022/02/22 06:17:08;;;;;;;5.40;1.67;;;5.10;71.80;;;;;;5022281;28;20210;-69
2022/02/22 06:19:35;;;;;;;5.93;2.97;;;5.20;71.40;;;;;;5018385;28;20526;-67
2022/02/22 06:22:04;;;;;;;5.60;1.90;;;5.20;70.70;;;;;;5014982;28;20617;-67
2022/02/22 06:24:31;;;;;;;4.65;1.50;;;5.20;70.00;;;;;;5035161;28;20640;-67
2022/02/22 06:26:58;;;;;;;4.80;2.47;;;5.20;68.60;;;;;;5035098;28;20222;-71
2022/02/22 06:29:25;;;;;;;7.65;3.22;;;5.20;68.50;;;;;;5032839;28;20508;-66
2022/02/22 06:31:52;;;;;;;4.38;1.55;;;5.20;67.80;;;;;;5025929;28;20612;-67
2022/02/22 06:34:19;;;;;;;6.65;3.08;;;5.20;67.30;;;;;;5021034;28;20233;-66
2022/02/22 06:36:46;;;;;;;9.82;4.18;;;5.20;66.70;;;;;;5015450;28;20225;-66
2022/02/22 06:39:15;;;;;;;3.53;1.90;;;5.10;66.60;;;;;;5015214;28;20196;-67
2022/02/22 06:41:42;;;;;;;6.65;3.80;;;5.00;66.90;;;;;;5015184;28;20608;-66
2022/02/22 06:44:09;;;;;;;6.88;3.20;;;4.90;67.40;;;;;;5013869;28;20245;-66
2022/02/22 06:46:35;;;;;;;8.75;3.80;;;4.90;67.50;;;;;;5014632;28;20196;-70
2022/02/22 06:49:02;;;;;;;10.75;4.57;;;4.90;67.50;;;;;;5031821;28;20549;-67
2022/02/22 06:51:29;;;;;;;7.85;2.97;;;4.90;67.40;;;;;;5034568;28;20195;-67
2022/02/22 06:53:56;;;;;;;8.73;3.30;;;4.90;67.90;;;;;;5034134;28;20586;-67
2022/02/22 06:56:24;;;;;;;5.10;2.30;;;5.00;67.70;;;;;;5031400;28;20525;-67
2022/02/22 06:58:53;;;;;;;8.00;1.52;;;5.00;67.80;;;;;;5027973;28;20338;-67
2022/02/22 07:01:20;;;;;;;5.80;1.92;;;5.10;67.50;;;;;;5026927;28;20308;-67
2022/02/22 07:03:47;;;;;;;8.48;1.92;;;5.20;66.90;;;;;;5033881;28;20443;-67
2022/02/22 07:06:13;;;;;;;6.50;1.55;;;5.50;66.10;;;;;;5030426;28;20231;-67
2022/02/22 07:08:40;;;;;;;4.97;1.25;;;5.70;64.90;;;;;;5014380;28;20551;-66
2022/02/22 07:11:07;;;;;;;5.43;1.17;;;5.70;64.40;;;;;;5014870;28;20183;-67
2022/02/22 07:13:34;;;;;;;5.50;1.50;;;5.80;64.00;;;;;;5030879;28;20671;-67
2022/02/22 07:16:03;;;;;;;8.18;1.55;;;5.90;64.20;;;;;;5033425;28;20183;-67
2022/02/22 07:18:30;;;;;;;7.40;1.35;;;5.90;63.20;;;;;;5014267;28;20183;-67
2022/02/22 07:20:57;;;;;;;6.30;1.40;;;6.00;63.00;;;;;;5013854;28;20570;-67
2022/02/22 07:23:24;;;;;;;3.72;1.73;;;6.10;62.80;;;;;;5026974;28;20529;-67
2022/02/22 07:25:50;;;;;;;6.15;2.47;;;6.00;62.40;;;;;;5018030;28;20207;-68
2022/02/22 07:28:18;;;;;;;8.77;2.80;;;6.10;62.50;;;;;;5028482;28;20230;-66
2022/02/22 07:30:45;;;;;;;6.05;3.30;;;6.10;62.50;;;;;;5028177;28;20175;-67
2022/02/22 07:33:13;;;;;;;9.52;4.45;;;6.10;62.50;;;;;;5018904;28;20179;-67
2022/02/22 07:35:41;;;;;;;4.60;1.52;;;6.20;62.70;;;;;;5033266;28;20249;-66
2022/02/22 07:38:08;;;;;;;5.00;1.38;;;6.20;62.80;;;;;;5030006;28;20237;-67
2022/02/22 07:40:35;;;;;;;4.47;1.25;;;6.10;63.20;;;;;;5019749;28;20578;-66
2022/02/22 07:43:02;;;;;;;7.25;2.50;;;6.10;63.50;;;;;;5031067;28;20194;-67
2022/02/22 07:45:29;;;;;;;3.00;1.33;;;6.20;63.50;;;;;;5022302;28;20196;-67
2022/02/22 07:47:56;;;;;;;2.70;1.20;;;6.10;63.10;;;;;;5030896;28;20198;-68
2022/02/22 07:50:24;;;;;;;4.03;1.42;;;6.10;63.30;;;;;;5022898;28;20202;-67
2022/02/22 07:52:51;;;;;;;3.80;1.45;;;6.10;63.10;;;;;;5012911;28;20199;-67
2022/02/22 07:55:19;;;;;;;3.67;1.52;;;6.10;62.30;;;;;;5021370;28;20226;-67
2022/02/22 07:57:46;;;;;;;8.55;1.60;;;6.10;62.20;;;;;;5032850;28;20241;-67
2022/02/22 08:00:14;;;;;;;2.22;1.27;;;6.20;61.90;;;;;;5026096;28;20211;-66
2022/02/22 08:02:41;;;;;;;3.55;1.20;;;6.20;61.50;;;;;;5013856;28;20662;-66
2022/02/22 08:05:09;;;;;;;2.83;1.10;;;6.20;61.10;;;;;;5029598;28;20243;-67
2022/02/22 08:07:37;;;;;;;5.07;1.65;;;6.40;61.90;;;;;;5018066;28;20187;-67
2022/02/22 08:10:05;;;;;;;8.63;1.33;;;7.80;62.50;;;;;;5013732;28;20558;-67
2022/02/22 08:12:32;;;;;;;4.63;1.50;;;10.00;56.40;;;;;;5026571;28;20187;-70
2022/02/22 08:14:59;;;;;;;6.35;1.35;;;11.90;52.10;;;;;;5032299;28;20646;-67
2022/02/22 08:17:27;;;;;;;3.83;1.52;;;12.60;46.90;;;;;;5018513;28;20785;-67
2022/02/22 08:19:54;;;;;;;3.00;1.52;;;12.20;44.90;;;;;;5012292;28;20195;-67
2022/02/22 08:22:21;;;;;;;3.60;1.23;;;11.50;43.80;;;;;;5023912;28;20580;-67
2022/02/22 08:24:49;;;;;;;4.78;1.55;;;12.50;44.10;;;;;;5014942;28;20191;-72
2022/02/22 08:27:17;;;;;;;3.30;1.60;;;14.10;41.90;;;;;;5014131;28;20235;-74
2022/02/22 08:29:44;;;;;;;3.45;1.20;;;15.10;38.50;;;;;;5022676;28;20195;-67
2022/02/22 08:32:11;;;;;;;2.08;1.20;;;15.90;36.60;;;;;;5032737;28;20677;-67
2022/02/22 08:34:38;;;;;;;5.13;1.60;;;17.20;33.50;;;;;;5024241;28;20192;-67
2022/02/22 08:37:05;;;;;;;2.80;1.40;;;16.50;31.90;;;;;;5032773;28;20202;-67
2022/02/22 08:39:32;;;;;;;3.65;1.30;;;15.40;32.10;;;;;;5023920;28;20195;-67
2022/02/22 08:42:06;;;;;;;4.90;1.20;;;15.00;34.60;;;;;;5019624;28;20306;-67
2022/02/22 08:44:33;;;;;;;6.40;2.27;;;16.90;35.00;;;;;;5031966;28;20191;-67
2022/02/22 08:47:00;;;;;;;4.23;1.50;;;19.50;31.20;;;;;;5032576;28;20806;-67
2022/02/22 08:49:27;;;;;;;4.40;1.30;;;19.50;28.60;;;;;;5025389;28;20497;-68
2022/02/22 08:51:54;;;;;;;2.00;1.20;;;19.30;29.10;;;;;;5030682;28;20441;-67
2022/02/22 08:54:21;;;;;;;5.10;2.13;;;20.30;29.40;;;;;;5026713;28;20533;-67
2022/02/22 08:56:48;;;;;;;3.30;1.30;;;22.30;26.50;;;;;;5012831;28;20434;-68
2022/02/22 08:59:16;;;;;;;3.60;1.40;;;24.10;24.10;;;;;;5013207;28;20486;-68
2022/02/22 09:01:43;;;;;;;4.07;1.00;;;25.90;21.90;;;;;;5013459;28;20482;-68
2022/02/22 09:04:10;;;;;;;4.07;2.23;;;27.20;20.10;;;;;;5015229;28;20908;-69
2022/02/22 09:06:37;;;;;;;3.37;1.47;;;28.60;19.50;;;;;;5012937;28;20497;-68
2022/02/22 09:09:04;;;;;;;5.13;2.07;;;30.10;18.20;;;;;;5012621;28;20443;-68
2022/02/22 09:11:32;;;;;;;3.30;1.63;;;30.60;16.00;;;;;;5012518;28;20526;-68
2022/02/22 09:13:59;;;;;;;4.57;1.30;;;29.80;16.60;;;;;;5012254;28;20520;-68
2022/02/22 09:16:27;;;;;;;2.97;1.03;;;28.80;15.70;;;;;;5029590;28;20449;-68
2022/02/22 09:18:54;;;;;;;3.57;1.30;;;26.50;16.20;;;;;;5032519;28;20445;-68
2022/02/22 09:21:21;;;;;;;2.93;1.00;;;24.50;16.90;;;;;;5015246;28;20474;-68
2022/02/22 09:23:48;;;;;;;4.20;1.93;;;23.60;18.50;;;;;;5013301;28;20960;-72
2022/02/22 09:26:15;;;;;;;4.90;1.40;;;22.30;19.40;;;;;;5012150;28;20487;-67
2022/02/22 09:28:45;;;;;;;5.40;1.60;;;22.80;21.30;;;;;;5025858;28;20477;-67
2022/02/22 09:31:12;;;;;;;4.43;1.63;;;23.20;20.60;;;;;;5031985;28;20448;-68
2022/02/22 09:33:40;;;;;;;3.40;1.30;;;24.00;20.40;;;;;;5019055;28;20442;-68
2022/02/22 09:36:08;;;;;;;2.57;1.17;;;23.10;19.90;;;;;;5012769;28;20479;-67
2022/02/22 09:38:35;;;;;;;6.67;2.07;;;21.50;20.20;;;;;;5011992;28;20447;-67
2022/02/22 09:41:02;;;;;;;4.00;1.50;;;19.80;21.50;;;;;;5015657;28;20827;-67
2022/02/22 09:43:29;;;;;;;4.67;1.67;;;18.20;24.20;;;;;;5031880;28;20438;-67
2022/02/22 09:45:57;;;;;;;4.50;1.53;;;17.00;26.60;;;;;;5017810;28;20523;-67
2022/02/22 09:48:24;;;;;;;3.67;1.80;;;18.50;32.30;;;;;;5012559;28;20456;-68
2022/02/22 09:50:53;;;;;;;3.83;1.17;;;22.70;28.70;;;;;;5024592;28;20761;-68
2022/02/22 09:53:20;;;;;;;3.60;1.37;;;25.30;22.70;;;;;;5032389;28;20836;-75
2022/02/22 09:55:47;;;;;;;3.50;1.80;;;24.20;21.10;;;;;;5020156;28;20957;-68
2022/02/22 09:58:14;;;;;;;4.23;1.70;;;22.10;21.30;;;;;;5012298;28;20438;-68
2022/02/22 10:00:41;;;;;;;4.60;2.03;;;20.10;22.60;;;;;;5022001;28;20451;-67
2022/02/22 10:03:17;;;;;;;4.97;1.63;;;18.50;23.90;;;;;;5031722;28;20442;-67
2022/02/22 10:05:55;;;;;;;6.77;1.60;;;17.30;25.90;;;;;;5016851;28;20948;-67
2022/02/22 10:08:29;;;;;;;12.33;1.97;;;16.40;26.90;;;;;;5012197;28;20454;-68
2022/02/22 10:11:07;;;;;;;4.13;1.20;;;16.60;30.80;;;;;;5027468;28;20461;-70
2022/02/22 10:13:35;;;;;;;2.50;1.23;;;20.70;30.30;;;;;;5031394;28;20524;-68
2022/02/22 10:16:11;;;;;;;4.27;1.30;;;25.10;24.90;;;;;;5015788;28;20443;-69
2022/02/22 10:18:46;;;;;;;4.33;1.30;;;28.60;21.90;;;;;;5020235;28;20433;-68
2022/02/22 10:21:15;;;;;;;3.90;1.60;;;31.60;18.10;;;;;;5017845;28;20486;-68
2022/02/22 10:23:42;;;;;;;3.23;1.30;;;33.60;17.10;;;;;;5015366;28;20449;-68
2022/02/22 10:26:19;;;;;;;4.10;1.33;;;35.50;15.60;;;;;;5014989;28;20434;-68
2022/02/22 10:28:47;;;;;;;3.63;1.10;;;36.70;13.00;;;;;;5015254;28;20948;-68
2022/02/22 10:31:14;;;;;;;2.97;1.30;;;36.30;12.10;;;;;;5014947;28;20442;-70
2022/02/22 10:33:44;;;;;;;3.80;1.60;;;37.10;12.20;;;;;;5015731;28;20439;-69
2022/02/22 10:36:20;;;;;;;3.73;1.23;;;37.30;11.00;;;;;;5017158;28;21009;-68
2022/02/22 10:38:47;;;;;;;3.33;1.63;;;36.10;10.50;;;;;;5016376;28;20462;-68
2022/02/22 10:41:16;;;;;;;2.80;1.50;;;33.40;11.10;;;;;;5015515;28;20798;-68
2022/02/22 10:43:52;;;;;;;3.80;1.33;;;30.40;12.30;;;;;;5028166;28;20503;-68
2022/02/22 10:46:26;;;;;;;3.83;1.00;;;27.50;14.10;;;;;;5023285;28;20441;-68
2022/02/22 10:49:01;;;;;;;2.33;1.13;;;24.90;17.80;;;;;;5014613;28;20475;-69
2022/02/22 10:51:36;;;;;;;2.27;0.80;;;22.50;20.10;;;;;;5025834;28;20488;-67
2022/02/22 10:54:04;;;;;;;2.00;0.80;;;20.50;22.30;;;;;;5034376;28;20477;-67
2022/02/22 10:56:33;;;;;;;3.40;1.20;;;19.00;25.10;;;;;;5022655;28;20513;-68
2022/02/22 10:59:00;;;;;;;4.17;1.10;;;19.00;29.10;;;;;;5024757;28;20465;-68
2022/02/22 11:01:28;;;;;;;3.60;1.50;;;21.60;29.00;;;;;;5034782;28;20448;-68
2022/02/22 11:03:55;;;;;;;4.27;1.63;;;23.20;24.80;;;;;;5025811;28;20446;-68
2022/02/22 11:06:23;;;;;;;4.30;1.83;;;22.10;24.00;;;;;;5015785;28;21016;-68
2022/02/22 11:08:53;;;;;;;3.37;1.57;;;20.40;24.10;;;;;;5028172;28;20963;-67
2022/02/22 11:11:25;;;;;;;2.97;1.50;;;18.70;25.40;;;;;;5016601;28;20482;-67
2022/02/22 11:13:58;;;;;;;4.23;2.00;;;17.50;27.60;;;;;;5034338;28;20976;-67
2022/02/22 11:16:26;;;;;;;4.90;1.60;;;16.50;29.10;;;;;;5031109;28;20533;-67
2022/02/22 11:18:55;;;;;;;3.20;1.73;;;15.80;30.20;;;;;;5023507;28;20457;-68
2022/02/22 11:21:28;;;;;;;3.20;1.47;;;15.10;30.80;;;;;;5032853;28;20429;-67
2022/02/22 11:24:05;;;;;;;6.00;1.97;;;14.40;33.30;;;;;;5014740;28;20529;-68
2022/02/22 11:26:45;;;;;;;5.23;1.40;;;13.70;34.20;;;;;;5015380;28;20788;-67
2022/02/22 11:29:13;;;;;;;3.00;1.40;;;13.10;34.90;;;;;;5025002;28;20513;-67
2022/02/22 11:31:40;;;;;;;4.25;1.73;;;12.50;36.80;;;;;;5014253;28;20486;-66
2022/02/22 11:34:07;;;;;;;4.65;2.17;;;13.40;40.30;;;;;;5015682;28;20595;-67
2022/02/22 11:36:37;;;;;;;3.17;1.55;;;13.70;38.40;;;;;;5013286;28;20250;-67
2022/02/22 11:39:06;;;;;;;4.80;1.80;;;13.50;38.60;;;;;;5013788;28;20196;-67
2022/02/22 11:41:39;;;;;;;5.05;1.83;;;13.80;40.00;;;;;;5033590;28;20202;-67
2022/02/22 11:44:16;;;;;;;3.90;1.75;;;14.20;39.20;;;;;;5031735;28;20183;-68
2022/02/22 11:46:45;;;;;;;2.77;1.43;;;16.40;42.70;;;;;;5019227;28;20187;-67
2022/02/22 11:49:21;;;;;;;3.23;1.60;;;20.90;40.30;;;;;;5022087;28;20441;-68
2022/02/22 11:51:52;;;;;;;2.80;1.27;;;25.00;30.60;;;;;;5033127;28;20604;-67
2022/02/22 11:54:22;;;;;;;4.27;1.50;;;26.70;23.10;;;;;;5023841;28;20530;-68
2022/02/22 11:57:02;;;;;;;2.80;1.30;;;27.40;23.80;;;;;;5014465;28;20521;-68
2022/02/22 11:59:31;;;;;;;3.77;1.27;;;27.70;20.20;;;;;;5014502;28;20790;-68
2022/02/22 12:01:59;;;;;;;6.83;2.37;;;28.60;21.80;;;;;;5017929;28;20474;-69
2022/02/22 12:04:28;;;;;;;4.83;2.07;;;30.30;21.10;;;;;;5033477;28;20792;-69
2022/02/22 12:06:57;;;;;;;3.87;1.30;;;29.50;17.10;;;;;;5033163;28;20480;-68
2022/02/22 12:09:37;;;;;;;2.60;1.10;;;27.30;18.10;;;;;;5033884;28;20522;-67
2022/02/22 12:12:05;;;;;;;4.97;1.53;;;24.80;19.60;;;;;;5026375;28;20980;-67
2022/02/22 12:14:32;;;;;;;2.43;1.00;;;22.60;20.90;;;;;;5024997;28;20984;-67
2022/02/22 12:16:59;;;;;;;2.87;1.00;;;20.80;23.00;;;;;;5024769;28;20485;-67
2022/02/22 12:19:26;;;;;;;3.20;1.00;;;19.80;25.70;;;;;;5026463;28;20465;-68
2022/02/22 12:21:56;;;;;;;3.23;1.20;;;20.80;26.70;;;;;;5032233;28;20433;-68
2022/02/22 12:24:24;;;;;;;2.00;0.80;;;23.30;27.10;;;;;;5028760;28;20470;-68
2022/02/22 12:26:53;;;;;;;3.67;1.23;;;23.40;23.30;;;;;;5029286;28;20869;-70
2022/02/22 12:29:20;;;;;;;4.37;1.37;;;22.60;23.80;;;;;;5024419;28;20435;-68
2022/02/22 12:31:54;;;;;;;4.53;1.13;;;21.90;22.80;;;;;;5016667;28;20485;-67
2022/02/22 12:34:24;;;;;;;4.63;0.90;;;20.50;23.50;;;;;;5022897;28;20442;-68
2022/02/22 12:36:54;;;;;;;3.10;1.00;;;19.50;24.80;;;;;;5032257;28;20440;-68
2022/02/22 12:39:29;;;;;;;2.00;0.87;;;18.60;26.20;;;;;;5020011;28;20545;-67
2022/02/22 12:41:59;;;;;;;2.53;1.30;;;17.50;27.50;;;;;;5021030;28;20525;-71
2022/02/22 12:44:28;;;;;;;2.20;0.90;;;16.30;29.50;;;;;;5013305;28;20797;-67
2022/02/22 12:46:58;;;;;;;2.90;1.40;;;15.50;31.20;;;;;;5022746;28;20446;-67
2022/02/22 12:49:26;;;;;;;4.70;1.77;;;14.90;32.90;;;;;;5033435;28;20840;-67
2022/02/22 12:52:00;;;;;;;2.97;1.70;;;15.80;38.60;;;;;;5024039;28;20510;-68
2022/02/22 12:54:27;;;;;;;6.40;2.17;;;19.20;37.80;;;;;;5012868;28;20935;-67
2022/02/22 12:56:55;;;;;;;3.07;1.13;;;22.40;32.20;;;;;;5013883;28;20452;-69